Hilo, Hawaii
Current Conditions -  °F | °C
As of 11:53 PM on Sunday 19 Oct 2014 (Local Time) from PHTO Reporting Station
Scattered Clouds Scattered Clouds  
Wind Chill: 72°   Ceiling: Unl
Heat Index: 72°   Visibility: 10mi
Dew Point: 68°   Wind: 6mph
Humidity: 87%   Direction: 230°SW
Pressure: 30.04"   Gusts: NA
Location:  19.72°N, 155.08°W
Report Text: PHTO 200953Z 23005KT 10SM SCT050 22/20 A3004 RMK AO2 SLP172 T02220200 402830222
Loading
Personal Weather Stations






























Interactive Weather Map
Tropical Storm Tracking
New forecast layout! Learn more

10-Day Weather Forecast

Advertisements
Track Severe Weather on mobile